Time;durP1;ratioP1;P1;durP2;ratioP2;P2;SDS_P1;SDS_P2;PMS_P1;PMS_P2;Temp;Humidity;BMP_temperature;BMP_pressure;BME280_temperature;BME280_humidity;BME280_pressure;Samples;Min_cycle;Max_cycle;Signal;HPM_P1;HPM_P2
2022/09/06 00:01:28;;;;;;;4.10;2.20;;;;;;;;;;5098148;28;20207;-54
2022/09/06 00:03:55;;;;;;;4.45;2.10;;;;;;;;;;5098107;28;20195;-52
2022/09/06 00:06:22;;;;;;;3.28;2.15;;;;;;;;;;5097792;28;20652;-53
2022/09/06 00:08:49;;;;;;;5.28;2.35;;;;;;;;;;5098164;28;20217;-55
2022/09/06 00:11:16;;;;;;;5.38;2.30;;;;;;;;;;5097840;28;20198;-57
2022/09/06 00:13:44;;;;;;;5.25;2.08;;;;;;;;;;5097620;28;20666;-53
2022/09/06 00:16:15;;;;;;;4.35;2.15;;;;;;;;;;5097725;28;20195;-53
2022/09/06 00:18:43;;;;;;;5.18;2.35;;;;;;;;;;5097716;28;20183;-54
2022/09/06 00:21:14;;;;;;;3.35;1.88;;;;;;;;;;5098047;28;20271;-54
2022/09/06 00:23:41;;;;;;;5.97;2.10;;;;;;;;;;5098165;28;20218;-53
2022/09/06 00:26:08;;;;;;;7.40;2.05;;;;;;;;;;5097558;28;20199;-53
2022/09/06 00:28:35;;;;;;;2.80;1.85;;;;;;;;;;5096762;28;20522;-54
2022/09/06 00:31:09;;;;;;;9.52;2.17;;;;;;;;;;5097470;28;20271;-56
2022/09/06 00:33:36;;;;;;;6.22;1.92;;;;;;;;;;5097806;28;20290;-56
2022/09/06 00:36:03;;;;;;;5.63;1.83;;;;;;;;;;5097894;28;20277;-57
2022/09/06 00:38:31;;;;;;;5.32;2.40;;;;;;;;;;5097240;28;20623;-53
2022/09/06 00:40:58;;;;;;;8.43;2.05;;;;;;;;;;5097382;28;20678;-54
2022/09/06 00:43:25;;;;;;;5.03;2.13;;;;;;;;;;5097287;28;20534;-54
2022/09/06 00:45:53;;;;;;;7.35;2.47;;;;;;;;;;5097126;28;20203;-54
2022/09/06 00:48:21;;;;;;;6.68;2.40;;;;;;;;;;5096744;28;20183;-53
2022/09/06 00:50:51;;;;;;;6.38;2.67;;;;;;;;;;5097263;28;20199;-54
2022/09/06 00:53:18;;;;;;;4.53;2.17;;;;;;;;;;5097531;28;20206;-54
2022/09/06 00:55:45;;;;;;;7.53;2.20;;;;;;;;;;5097332;28;20208;-55
2022/09/06 00:58:13;;;;;;;5.70;1.77;;;;;;;;;;5096803;28;20564;-53
2022/09/06 01:00:40;;;;;;;6.30;1.88;;;;;;;;;;5097505;28;20284;-53
2022/09/06 01:03:08;;;;;;;4.22;2.25;;;;;;;;;;5096657;28;20198;-54
2022/09/06 01:06:03;;;;;;;6.95;2.10;;;;;;;;;;5097362;28;20198;-55
2022/09/06 01:08:38;;;;;;;6.13;2.15;;;;;;;;;;5096072;28;20236;-55
2022/09/06 01:11:34;;;;;;;6.15;2.10;;;;;;;;;;5096631;28;20206;-56
2022/09/06 01:14:16;;;;;;;3.97;2.05;;;;;;;;;;5106875;28;20248;-57
2022/09/06 01:17:14;;;;;;;4.70;1.85;;;;;;;;;;5116764;28;20210;-55
2022/09/06 01:19:55;;;;;;;5.40;1.92;;;;;;;;;;5117187;28;20208;-55
2022/09/06 01:22:43;;;;;;;5.30;2.17;;;;;;;;;;5117323;28;20221;-54
2022/09/06 01:25:31;;;;;;;4.75;2.28;;;;;;;;;;5116658;28;20259;-56
2022/09/06 01:28:20;;;;;;;6.60;2.33;;;;;;;;;;5117079;28;20198;-54
2022/09/06 01:30:56;;;;;;;3.25;2.05;;;;;;;;;;5117014;28;20202;-53
2022/09/06 01:33:33;;;;;;;6.45;1.98;;;;;;;;;;5115776;28;20252;-55
2022/09/06 01:36:02;;;;;;;5.68;2.58;;;;;;;;;;5116681;28;20197;-55
2022/09/06 01:38:29;;;;;;;3.88;2.00;;;;;;;;;;5116401;28;20212;-58
2022/09/06 01:40:56;;;;;;;4.10;2.20;;;;;;;;;;5116691;28;20202;-55
2022/09/06 01:43:30;;;;;;;6.05;2.50;;;;;;;;;;5116324;28;20626;-53
2022/09/06 01:46:19;;;;;;;4.63;2.10;;;;;;;;;;5115441;28;20634;-56
2022/09/06 01:48:52;;;;;;;5.13;2.35;;;;;;;;;;5117319;28;20198;-53
2022/09/06 01:52:05;;;;;;;5.57;2.00;;;;;;;;;;5116380;28;20627;-56
2022/09/06 01:54:39;;;;;;;5.78;2.33;;;;;;;;;;5111451;28;20235;-53
2022/09/06 01:57:38;;;;;;;7.32;2.05;;;;;;;;;;5115766;28;20553;-54
2022/09/06 02:00:08;;;;;;;5.30;2.00;;;;;;;;;;5115524;28;20251;-53
2022/09/06 02:03:06;;;;;;;6.43;1.75;;;;;;;;;;5116356;28;20217;-53
2022/09/06 02:05:49;;;;;;;5.85;2.22;;;;;;;;;;5116503;28;20198;-54
2022/09/06 02:08:30;;;;;;;3.88;2.15;;;;;;;;;;5115905;28;20676;-57
2022/09/06 02:10:59;;;;;;;4.72;2.33;;;;;;;;;;5115319;28;20200;-55
2022/09/06 02:13:32;;;;;;;4.68;1.95;;;;;;;;;;5114600;28;20524;-56
2022/09/06 02:16:04;;;;;;;7.10;2.05;;;;;;;;;;5116285;28;20206;-54
2022/09/06 02:18:38;;;;;;;6.40;2.33;;;;;;;;;;5115761;28;20202;-51
2022/09/06 02:21:08;;;;;;;3.97;1.77;;;;;;;;;;5116093;28;20209;-51
2022/09/06 02:23:39;;;;;;;3.20;1.60;;;;;;;;;;5114965;28;20538;-54
2022/09/06 02:26:10;;;;;;;3.80;1.58;;;;;;;;;;5115358;28;20198;-53
2022/09/06 02:28:37;;;;;;;6.25;2.00;;;;;;;;;;5115162;28;20282;-54
2022/09/06 02:31:31;;;;;;;2.78;1.70;;;;;;;;;;5115816;28;20209;-53
2022/09/06 02:33:59;;;;;;;5.07;1.98;;;;;;;;;;5115448;28;20214;-52
2022/09/06 02:36:26;;;;;;;8.93;2.15;;;;;;;;;;5115727;28;20263;-51
2022/09/06 02:38:53;;;;;;;4.32;2.47;;;;;;;;;;5116009;28;20548;-54
2022/09/06 02:41:22;;;;;;;3.40;1.70;;;;;;;;;;5115500;28;20704;-56
2022/09/06 02:43:49;;;;;;;3.42;1.92;;;;;;;;;;5114790;28;20198;-54
2022/09/06 02:46:16;;;;;;;4.38;1.77;;;;;;;;;;5115296;28;20230;-55
2022/09/06 02:48:44;;;;;;;2.65;2.03;;;;;;;;;;5115312;28;20259;-54
2022/09/06 02:51:11;;;;;;;3.17;1.70;;;;;;;;;;5115421;28;20198;-55
2022/09/06 02:53:38;;;;;;;4.00;1.77;;;;;;;;;;5115147;28;20226;-56
2022/09/06 02:56:05;;;;;;;2.60;1.70;;;;;;;;;;5115396;28;20206;-55
2022/09/06 02:58:33;;;;;;;3.75;1.92;;;;;;;;;;5115449;28;20210;-53
2022/09/06 03:01:00;;;;;;;7.07;1.88;;;;;;;;;;5115089;28;20623;-54
2022/09/06 03:03:27;;;;;;;3.72;2.00;;;;;;;;;;5114346;28;20631;-55
2022/09/06 03:05:54;;;;;;;3.75;1.95;;;;;;;;;;5115393;28;20201;-56
2022/09/06 03:08:24;;;;;;;4.38;1.95;;;;;;;;;;5115358;28;20198;-54
2022/09/06 03:10:54;;;;;;;4.50;2.60;;;;;;;;;;5115419;28;20198;-54
2022/09/06 03:13:23;;;;;;;4.47;1.80;;;;;;;;;;5115246;28;20236;-55
2022/09/06 03:15:51;;;;;;;4.15;1.90;;;;;;;;;;5115552;28;20209;-53
2022/09/06 03:18:18;;;;;;;3.97;2.00;;;;;;;;;;5114910;28;20575;-50
2022/09/06 03:20:48;;;;;;;4.97;2.08;;;;;;;;;;5114771;28;20631;-55
2022/09/06 03:23:16;;;;;;;3.65;1.75;;;;;;;;;;5114743;28;20202;-51
2022/09/06 03:25:43;;;;;;;3.88;1.77;;;;;;;;;;5118784;28;20263;-56
2022/09/06 03:28:11;;;;;;;3.50;1.75;;;;;;;;;;5118677;27;20198;-53
2022/09/06 03:30:39;;;;;;;3.22;1.70;;;;;;;;;;5118714;28;20565;-56
2022/09/06 03:33:06;;;;;;;4.35;2.10;;;;;;;;;;5116746;28;20218;-56
2022/09/06 03:35:33;;;;;;;3.20;1.83;;;;;;;;;;5114838;28;20224;-53
2022/09/06 03:38:00;;;;;;;4.30;2.10;;;;;;;;;;5117409;28;20197;-56
2022/09/06 03:40:27;;;;;;;4.25;2.20;;;;;;;;;;5117561;28;20206;-55
2022/09/06 03:42:55;;;;;;;5.55;1.90;;;;;;;;;;5117477;28;20259;-57
2022/09/06 03:45:22;;;;;;;4.28;1.88;;;;;;;;;;5117346;28;20220;-57
2022/09/06 03:47:49;;;;;;;3.60;1.85;;;;;;;;;;5117161;28;20230;-54
2022/09/06 03:50:16;;;;;;;5.28;2.00;;;;;;;;;;5114484;28;20278;-53
2022/09/06 03:52:42;;;;;;;6.30;1.83;;;;;;;;;;5117024;27;20484;-51
2022/09/06 03:55:10;;;;;;;2.30;1.60;;;;;;;;;;5116817;28;20206;-56
2022/09/06 03:57:37;;;;;;;3.20;1.88;;;;;;;;;;5108937;27;20223;-55
2022/09/06 04:00:05;;;;;;;6.70;2.28;;;;;;;;;;5105946;28;20214;-53
2022/09/06 04:02:37;;;;;;;6.28;2.33;;;;;;;;;;5110710;27;20553;-53
2022/09/06 04:05:05;;;;;;;5.18;2.00;;;;;;;;;;5110187;28;20594;-53
2022/09/06 04:07:32;;;;;;;4.43;1.98;;;;;;;;;;5117132;28;20237;-51
2022/09/06 04:09:59;;;;;;;7.78;1.70;;;;;;;;;;5114753;28;20214;-55
2022/09/06 04:12:27;;;;;;;3.78;1.70;;;;;;;;;;5117172;28;20594;-56
2022/09/06 04:14:54;;;;;;;5.38;1.83;;;;;;;;;;5110583;27;20673;-54
2022/09/06 04:17:21;;;;;;;3.85;1.83;;;;;;;;;;5100183;28;20219;-54
2022/09/06 04:19:48;;;;;;;4.20;2.30;;;;;;;;;;5097973;28;20694;-53
2022/09/06 04:22:15;;;;;;;3.42;1.92;;;;;;;;;;5096896;28;20666;-53
2022/09/06 04:24:42;;;;;;;4.07;1.75;;;;;;;;;;5096599;28;20226;-50
2022/09/06 04:27:09;;;;;;;2.45;1.75;;;;;;;;;;5096905;28;20284;-51
2022/09/06 04:29:36;;;;;;;4.45;1.67;;;;;;;;;;5096555;28;20230;-56
2022/09/06 04:32:03;;;;;;;4.95;1.98;;;;;;;;;;5095749;28;20664;-50
2022/09/06 04:34:30;;;;;;;7.63;2.13;;;;;;;;;;5099025;28;20312;-57
2022/09/06 04:36:57;;;;;;;2.60;1.95;;;;;;;;;;5113037;28;20662;-57
2022/09/06 04:39:24;;;;;;;6.90;1.95;;;;;;;;;;5116434;27;20222;-54
2022/09/06 04:41:51;;;;;;;6.05;1.88;;;;;;;;;;5115970;28;20279;-55
2022/09/06 04:44:18;;;;;;;4.03;1.95;;;;;;;;;;5116088;27;20540;-56
2022/09/06 04:46:45;;;;;;;7.68;2.17;;;;;;;;;;5115464;27;20233;-55
2022/09/06 04:49:12;;;;;;;4.68;1.77;;;;;;;;;;5112655;28;20222;-57
2022/09/06 04:51:39;;;;;;;5.63;2.08;;;;;;;;;;5113281;28;20218;-55
2022/09/06 04:54:07;;;;;;;6.05;2.40;;;;;;;;;;5114816;27;20225;-56
2022/09/06 04:56:34;;;;;;;3.50;2.20;;;;;;;;;;5113394;28;20210;-55
2022/09/06 04:59:01;;;;;;;7.63;2.53;;;;;;;;;;5114670;27;20342;-57
2022/09/06 05:01:29;;;;;;;6.35;2.53;;;;;;;;;;5116233;28;20213;-54
2022/09/06 05:03:56;;;;;;;6.13;2.20;;;;;;;;;;5114953;28;20222;-57
2022/09/06 05:06:23;;;;;;;3.50;1.98;;;;;;;;;;5115330;28;20253;-56
2022/09/06 05:08:50;;;;;;;3.88;2.00;;;;;;;;;;5114801;28;20222;-55
2022/09/06 05:11:18;;;;;;;4.53;1.98;;;;;;;;;;5115100;28;20229;-57
2022/09/06 05:13:46;;;;;;;2.35;1.65;;;;;;;;;;5114158;28;20658;-54
2022/09/06 05:16:13;;;;;;;6.30;1.90;;;;;;;;;;5115599;27;20214;-55
2022/09/06 05:18:40;;;;;;;4.45;2.20;;;;;;;;;;5115491;28;20202;-55
2022/09/06 05:21:07;;;;;;;4.40;2.03;;;;;;;;;;5115804;28;20260;-55
2022/09/06 05:23:34;;;;;;;4.68;2.05;;;;;;;;;;5116146;28;20216;-56
2022/09/06 05:26:02;;;;;;;2.97;1.77;;;;;;;;;;5116619;28;20206;-54
2022/09/06 05:28:29;;;;;;;5.85;2.00;;;;;;;;;;5115620;28;20652;-56
2022/09/06 05:31:06;;;;;;;3.35;1.40;;;;;;;;;;5116263;28;20206;-58
2022/09/06 05:33:33;;;;;;;6.28;1.63;;;;;;;;;;5116345;28;20225;-57
2022/09/06 05:36:02;;;;;;;3.63;1.65;;;;;;;;;;5117147;28;20224;-54
2022/09/06 05:38:29;;;;;;;5.00;1.50;;;;;;;;;;5116671;28;20202;-56
2022/09/06 05:40:56;;;;;;;8.18;1.65;;;;;;;;;;5116277;28;20661;-56
2022/09/06 05:43:23;;;;;;;4.05;1.58;;;;;;;;;;5116387;28;20522;-57
2022/09/06 05:46:05;;;;;;;3.13;1.75;;;;;;;;;;5116487;27;20290;-56
2022/09/06 05:48:32;;;;;;;4.97;2.00;;;;;;;;;;5115193;28;20185;-57
2022/09/06 05:51:12;;;;;;;6.15;1.70;;;;;;;;;;5116325;28;20213;-56
2022/09/06 05:53:41;;;;;;;3.42;1.77;;;;;;;;;;5115611;28;20595;-58
2022/09/06 05:56:10;;;;;;;2.38;1.20;;;;;;;;;;5115467;28;20198;-56
2022/09/06 05:58:37;;;;;;;2.63;1.40;;;;;;;;;;5116211;28;20202;-55
2022/09/06 06:01:18;;;;;;;2.95;1.40;;;;;;;;;;5115316;28;20210;-55
2022/09/06 06:03:51;;;;;;;5.35;1.60;;;;;;;;;;5116662;28;20201;-56
2022/09/06 06:06:19;;;;;;;3.85;1.35;;;;;;;;;;5115567;28;20728;-56
2022/09/06 06:08:46;;;;;;;2.38;1.17;;;;;;;;;;5114918;28;20214;-57
2022/09/06 06:11:14;;;;;;;4.28;1.58;;;;;;;;;;5114666;28;20774;-55
2022/09/06 06:13:42;;;;;;;3.78;1.42;;;;;;;;;;5115667;28;20226;-55
2022/09/06 06:16:10;;;;;;;6.72;1.60;;;;;;;;;;5114896;28;20213;-57
2022/09/06 06:18:38;;;;;;;3.95;1.67;;;;;;;;;;5115143;28;20198;-57
2022/09/06 06:21:17;;;;;;;3.28;1.20;;;;;;;;;;5114668;28;20206;-56
2022/09/06 06:23:45;;;;;;;3.42;1.30;;;;;;;;;;5115018;28;20193;-56
2022/09/06 06:26:12;;;;;;;5.95;1.30;;;;;;;;;;5116220;28;20197;-55
2022/09/06 06:28:40;;;;;;;1.65;1.20;;;;;;;;;;5115186;28;20195;-57
2022/09/06 06:31:08;;;;;;;2.50;1.17;;;;;;;;;;5113803;28;20522;-56
2022/09/06 06:33:35;;;;;;;3.50;1.15;;;;;;;;;;5112666;28;20225;-57
2022/09/06 06:36:05;;;;;;;2.10;1.27;;;;;;;;;;5114616;27;20566;-56
2022/09/06 06:38:36;;;;;;;2.65;1.35;;;;;;;;;;5115470;28;20202;-56
2022/09/06 06:41:05;;;;;;;1.90;1.15;;;;;;;;;;5115726;28;20209;-55
2022/09/06 06:43:36;;;;;;;1.33;1.05;;;;;;;;;;5115452;28;20519;-58
2022/09/06 06:46:14;;;;;;;3.33;0.93;;;;;;;;;;5113943;28;20201;-56
2022/09/06 06:48:42;;;;;;;4.93;0.90;;;;;;;;;;5115312;28;20225;-56
2022/09/06 06:51:11;;;;;;;3.13;0.98;;;;;;;;;;5114816;28;20206;-56
2022/09/06 06:53:38;;;;;;;1.45;0.90;;;;;;;;;;5114405;28;20597;-56
2022/09/06 06:56:27;;;;;;;2.42;1.00;;;;;;;;;;5114809;28;20233;-58
2022/09/06 06:58:56;;;;;;;3.35;0.80;;;;;;;;;;5114531;28;20201;-56
2022/09/06 07:01:25;;;;;;;3.53;0.80;;;;;;;;;;5115203;28;20198;-55
2022/09/06 07:03:53;;;;;;;1.70;0.90;;;;;;;;;;5114598;28;20585;-56
2022/09/06 07:06:21;;;;;;;2.15;0.95;;;;;;;;;;5114690;28;20670;-56
2022/09/06 07:09:08;;;;;;;0.88;0.70;;;;;;;;;;5115069;28;20639;-58
2022/09/06 07:11:35;;;;;;;1.25;0.80;;;;;;;;;;5113919;28;20650;-57
2022/09/06 07:14:02;;;;;;;1.73;0.90;;;;;;;;;;5115251;28;20248;-55
2022/09/06 07:16:29;;;;;;;0.75;0.50;;;;;;;;;;5115427;28;20255;-57
2022/09/06 07:18:56;;;;;;;3.10;1.00;;;;;;;;;;5114238;28;20197;-55
2022/09/06 07:21:25;;;;;;;1.25;0.50;;;;;;;;;;5113082;28;20647;-58
2022/09/06 07:24:08;;;;;;;4.18;0.80;;;;;;;;;;5114746;28;20189;-58
2022/09/06 07:26:37;;;;;;;1.35;0.80;;;;;;;;;;5114704;28;20202;-57
2022/09/06 07:29:06;;;;;;;12.82;2.47;;;;;;;;;;5114907;28;20216;-56
2022/09/06 07:31:34;;;;;;;4.45;0.45;;;;;;;;;;5114542;28;20210;-57
2022/09/06 07:34:22;;;;;;;2.13;1.38;;;;;;;;;;5113020;28;20221;-58
2022/09/06 07:36:52;;;;;;;5.97;0.52;;;;;;;;;;5113188;28;20198;-57
2022/09/06 07:39:19;;;;;;;3.60;0.40;;;;;;;;;;5114423;28;20563;-57
2022/09/06 07:41:46;;;;;;;2.17;0.57;;;;;;;;;;5114226;28;20525;-57
2022/09/06 07:44:13;;;;;;;3.88;0.47;;;;;;;;;;5113806;28;20198;-57
2022/09/06 07:46:40;;;;;;;2.53;0.90;;;;;;;;;;5114725;28;20229;-57
2022/09/06 07:49:07;;;;;;;9.02;0.43;;;;;;;;;;5114710;28;20255;-57
2022/09/06 07:51:34;;;;;;;1.73;0.50;;;;;;;;;;5114405;28;20715;-58
2022/09/06 07:54:01;;;;;;;1.85;0.68;;;;;;;;;;5114346;28;20226;-58
2022/09/06 07:56:48;;;;;;;2.65;0.43;;;;;;;;;;5114108;28;20204;-58
2022/09/06 07:59:15;;;;;;;1.17;0.52;;;;;;;;;;5113652;28;20202;-58
2022/09/06 08:01:42;;;;;;;0.88;0.50;;;;;;;;;;5114784;28;20198;-56
2022/09/06 08:04:11;;;;;;;1.38;0.50;;;;;;;;;;5112772;28;20206;-57
2022/09/06 08:06:40;;;;;;;3.53;0.50;;;;;;;;;;5114306;28;20240;-58
2022/09/06 08:09:28;;;;;;;1.90;0.50;;;;;;;;;;5114369;28;20214;-58
2022/09/06 08:11:55;;;;;;;0.90;0.40;;;;;;;;;;5115612;28;20217;-58
2022/09/06 08:14:22;;;;;;;1.85;0.50;;;;;;;;;;5117762;28;20229;-57
2022/09/06 08:16:49;;;;;;;4.03;0.63;;;;;;;;;;5116940;28;20213;-58
2022/09/06 08:19:17;;;;;;;0.73;0.40;;;;;;;;;;5117604;28;20201;-58
2022/09/06 08:21:44;;;;;;;2.03;0.60;;;;;;;;;;5118069;28;20201;-57
2022/09/06 08:24:12;;;;;;;2.42;0.30;;;;;;;;;;5117808;27;20205;-57
2022/09/06 08:26:42;;;;;;;1.10;0.40;;;;;;;;;;5117873;27;20630;-58
2022/09/06 08:29:09;;;;;;;1.00;0.32;;;;;;;;;;5117972;28;20565;-57
2022/09/06 08:31:39;;;;;;;3.28;0.50;;;;;;;;;;5117053;28;20194;-58
2022/09/06 08:34:06;;;;;;;0.93;0.40;;;;;;;;;;5117699;28;20225;-58
2022/09/06 08:36:33;;;;;;;3.60;0.50;;;;;;;;;;5117764;27;20205;-58
2022/09/06 08:39:03;;;;;;;1.02;0.40;;;;;;;;;;5117317;28;20209;-57
2022/09/06 08:41:41;;;;;;;1.83;0.50;;;;;;;;;;5117225;28;20201;-57
2022/09/06 08:44:14;;;;;;;1.83;0.50;;;;;;;;;;5115694;28;20206;-58
2022/09/06 08:47:06;;;;;;;0.85;0.50;;;;;;;;;;5115364;28;20298;-58
2022/09/06 08:49:36;;;;;;;0.95;0.50;;;;;;;;;;5116466;28;20179;-58
2022/09/06 08:52:13;;;;;;;2.38;0.63;;;;;;;;;;5115851;28;20190;-57
2022/09/06 08:54:45;;;;;;;4.13;0.60;;;;;;;;;;5116679;28;20252;-58
2022/09/06 08:57:39;;;;;;;1.95;0.40;;;;;;;;;;5115952;28;20232;-58
2022/09/06 09:00:12;;;;;;;1.92;0.40;;;;;;;;;;5115584;28;20205;-59
2022/09/06 09:02:50;;;;;;;0.50;0.20;;;;;;;;;;5115567;28;20206;-57
2022/09/06 09:05:25;;;;;;;1.17;0.40;;;;;;;;;;5117264;28;20206;-58
2022/09/06 09:08:00;;;;;;;0.88;0.30;;;;;;;;;;5117419;28;20277;-57
2022/09/06 09:10:30;;;;;;;2.10;0.45;;;;;;;;;;5115935;28;20208;-57
2022/09/06 09:12:59;;;;;;;1.10;0.32;;;;;;;;;;5116733;28;20198;-58
2022/09/06 09:15:27;;;;;;;5.90;0.70;;;;;;;;;;5115698;28;20228;-58
2022/09/06 09:17:54;;;;;;;1.02;0.50;;;;;;;;;;5116912;28;20198;-58
2022/09/06 09:20:21;;;;;;;0.52;0.40;;;;;;;;;;5116960;28;20201;-56
2022/09/06 09:22:48;;;;;;;5.05;0.50;;;;;;;;;;5116709;28;20576;-58
2022/09/06 09:25:20;;;;;;;1.65;0.40;;;;;;;;;;5116816;28;20719;-57
2022/09/06 09:27:56;;;;;;;2.78;0.55;;;;;;;;;;5114881;28;20239;-57
2022/09/06 09:30:25;;;;;;;2.83;0.63;;;;;;;;;;5115286;28;20536;-58
2022/09/06 09:33:22;;;;;;;1.15;0.30;;;;;;;;;;5116366;28;20718;-58
2022/09/06 09:35:49;;;;;;;0.57;0.35;;;;;;;;;;5117158;27;20221;-58
2022/09/06 09:38:28;;;;;;;2.22;0.75;;;;;;;;;;5115443;28;20274;-58
2022/09/06 09:40:57;;;;;;;2.47;0.40;;;;;;;;;;5116386;28;20204;-56
2022/09/06 09:43:27;;;;;;;2.15;0.40;;;;;;;;;;5114581;28;20274;-58
2022/09/06 09:46:13;;;;;;;1.88;0.55;;;;;;;;;;5115373;28;20263;-57
2022/09/06 09:48:48;;;;;;;3.92;0.40;;;;;;;;;;5115967;28;20194;-58
2022/09/06 09:51:24;;;;;;;1.48;0.40;;;;;;;;;;5116801;28;20235;-58
2022/09/06 09:54:02;;;;;;;3.55;0.40;;;;;;;;;;5115730;28;20198;-58
2022/09/06 09:56:29;;;;;;;0.50;0.30;;;;;;;;;;5116379;28;20202;-58
2022/09/06 09:58:57;;;;;;;4.45;0.40;;;;;;;;;;5116272;28;20197;-57
2022/09/06 10:01:28;;;;;;;0.85;0.38;;;;;;;;;;5114399;28;20202;-58
2022/09/06 10:04:09;;;;;;;5.95;0.32;;;;;;;;;;5116354;28;20223;-57
2022/09/06 10:07:07;;;;;;;0.52;0.32;;;;;;;;;;5115943;28;20533;-57
2022/09/06 10:09:37;;;;;;;1.65;0.40;;;;;;;;;;5115531;28;20285;-58
2022/09/06 10:12:05;;;;;;;2.88;0.43;;;;;;;;;;5115017;28;20193;-57
2022/09/06 10:14:39;;;;;;;0.80;0.35;;;;;;;;;;5115665;28;20217;-58
2022/09/06 10:17:06;;;;;;;5.38;0.40;;;;;;;;;;5115791;28;20626;-58
2022/09/06 10:19:39;;;;;;;1.08;0.40;;;;;;;;;;5115863;28;20660;-57
2022/09/06 10:22:19;;;;;;;0.50;0.30;;;;;;;;;;5115451;28;20221;-58
2022/09/06 10:24:53;;;;;;;3.20;0.47;;;;;;;;;;5115726;28;20216;-56
2022/09/06 10:27:25;;;;;;;7.53;0.43;;;;;;;;;;5114802;28;20668;-58
2022/09/06 10:30:10;;;;;;;1.30;0.40;;;;;;;;;;5115961;28;20202;-55
2022/09/06 10:32:46;;;;;;;0.98;0.40;;;;;;;;;;5115209;28;20216;-57
2022/09/06 10:35:24;;;;;;;1.77;0.45;;;;;;;;;;5115273;28;20210;-57
2022/09/06 10:38:13;;;;;;;1.65;0.40;;;;;;;;;;5116071;28;20201;-58
2022/09/06 10:41:05;;;;;;;0.38;0.32;;;;;;;;;;5098317;28;20259;-58
2022/09/06 10:43:54;;;;;;;1.50;0.60;;;;;;;;;;5094211;28;20223;-58
2022/09/06 10:46:24;;;;;;;2.47;0.50;;;;;;;;;;5115514;28;20209;-57
2022/09/06 10:48:55;;;;;;;2.70;0.40;;;;;;;;;;5111563;28;20202;-57
2022/09/06 10:51:35;;;;;;;5.32;0.57;;;;;;;;;;5114338;28;20182;-56
2022/09/06 10:54:10;;;;;;;0.60;0.38;;;;;;;;;;5112818;28;20206;-56
2022/09/06 10:56:49;;;;;;;1.08;0.52;;;;;;;;;;5111035;28;20221;-58
2022/09/06 10:59:30;;;;;;;0.60;0.40;;;;;;;;;;5109587;28;20197;-58
2022/09/06 11:02:17;;;;;;;0.50;0.30;;;;;;;;;;5111958;28;20209;-58
2022/09/06 11:04:46;;;;;;;1.45;0.63;;;;;;;;;;5112052;28;20206;-57
2022/09/06 11:07:41;;;;;;;0.57;0.40;;;;;;;;;;5111304;28;20198;-56
2022/09/06 11:10:34;;;;;;;4.20;0.30;;;;;;;;;;5113324;28;20209;-57
2022/09/06 11:13:05;;;;;;;1.52;0.40;;;;;;;;;;5112670;28;20258;-58
2022/09/06 11:15:42;;;;;;;0.35;0.22;;;;;;;;;;5108202;28;20228;-58
2022/09/06 11:18:21;;;;;;;0.68;0.43;;;;;;;;;;5111378;28;20239;-57
2022/09/06 11:21:07;;;;;;;0.43;0.40;;;;;;;;;;5112544;28;20194;-59
2022/09/06 11:23:52;;;;;;;2.22;0.50;;;;;;;;;;5112427;28;20190;-57
2022/09/06 11:26:33;;;;;;;2.20;0.60;;;;;;;;;;5113311;28;20198;-58
2022/09/06 11:29:07;;;;;;;3.65;0.45;;;;;;;;;;5112251;28;20518;-58
2022/09/06 11:31:49;;;;;;;2.70;0.40;;;;;;;;;;5111519;28;20276;-58
2022/09/06 11:34:36;;;;;;;1.13;0.55;;;;;;;;;;5111498;28;20520;-57
2022/09/06 11:37:05;;;;;;;7.88;0.85;;;;;;;;;;5112430;28;20231;-56
2022/09/06 11:39:36;;;;;;;1.08;0.40;;;;;;;;;;5113374;28;20198;-57
2022/09/06 11:42:45;;;;;;;1.50;0.38;;;;;;;;;;5112043;28;20186;-57
2022/09/06 11:45:12;;;;;;;1.65;0.50;;;;;;;;;;5113673;28;20198;-59
2022/09/06 11:47:42;;;;;;;2.78;0.60;;;;;;;;;;5117783;28;20225;-58
2022/09/06 11:50:21;;;;;;;7.88;0.52;;;;;;;;;;5114695;28;20500;-58
2022/09/06 11:52:49;;;;;;;1.98;0.40;;;;;;;;;;5108560;28;20223;-59
2022/09/06 11:55:17;;;;;;;0.80;0.50;;;;;;;;;;5117349;28;20221;-58
2022/09/06 11:57:53;;;;;;;0.82;0.57;;;;;;;;;;5114608;28;20198;-59
2022/09/06 12:00:25;;;;;;;0.32;0.30;;;;;;;;;;5117048;28;20635;-59
2022/09/06 12:02:52;;;;;;;1.38;0.43;;;;;;;;;;5114899;28;20538;-58
2022/09/06 12:05:25;;;;;;;3.15;0.30;;;;;;;;;;5117265;28;20224;-59
2022/09/06 12:08:27;;;;;;;0.50;0.30;;;;;;;;;;5114858;28;20190;-59
2022/09/06 12:11:21;;;;;;;5.05;0.65;;;;;;;;;;5097662;28;20198;-59
2022/09/06 12:13:54;;;;;;;2.95;0.80;;;;;;;;;;5114090;28;20502;-58
2022/09/06 12:16:22;;;;;;;2.47;0.50;;;;;;;;;;5116902;28;20247;-57
2022/09/06 12:18:49;;;;;;;0.70;0.40;;;;;;;;;;5109774;28;20218;-60
2022/09/06 12:21:38;;;;;;;2.38;0.50;;;;;;;;;;5116646;28;20190;-59
2022/09/06 12:24:25;;;;;;;3.53;0.68;;;;;;;;;;5113373;28;20198;-59
2022/09/06 12:27:10;;;;;;;1.88;0.40;;;;;;;;;;5112204;28;20235;-60
2022/09/06 12:29:37;;;;;;;0.75;0.40;;;;;;;;;;5105274;28;20224;-60
2022/09/06 12:32:05;;;;;;;1.02;0.68;;;;;;;;;;5115451;28;20232;-60
2022/09/06 12:34:33;;;;;;;1.85;0.63;;;;;;;;;;5112562;28;20230;-60
2022/09/06 12:37:06;;;;;;;6.68;1.00;;;;;;;;;;5115065;28;20233;-60
2022/09/06 12:39:33;;;;;;;1.77;1.35;;;;;;;;;;5115465;27;20228;-60
2022/09/06 12:42:04;;;;;;;1.40;0.70;;;;;;;;;;5115273;28;20232;-60
2022/09/06 12:44:52;;;;;;;2.30;0.60;;;;;;;;;;5111167;28;20214;-60
2022/09/06 12:47:31;;;;;;;1.52;0.80;;;;;;;;;;5112442;28;20236;-59
2022/09/06 12:50:30;;;;;;;4.53;0.75;;;;;;;;;;5114420;28;20217;-59
2022/09/06 12:52:59;;;;;;;3.15;0.65;;;;;;;;;;5052703;28;20281;-60
2022/09/06 12:55:32;;;;;;;1.20;0.70;;;;;;;;;;5052033;28;20668;-59
2022/09/06 12:58:04;;;;;;;1.50;0.70;;;;;;;;;;5051082;28;20216;-60
2022/09/06 13:00:36;;;;;;;1.50;0.75;;;;;;;;;;5050157;28;20224;-59
2022/09/06 13:03:09;;;;;;;1.08;0.60;;;;;;;;;;5036274;28;20219;-60
2022/09/06 13:05:40;;;;;;;0.68;0.50;;;;;;;;;;5052356;28;20227;-59
2022/09/06 13:08:31;;;;;;;1.15;0.55;;;;;;;;;;5035537;28;20231;-59
2022/09/06 13:10:58;;;;;;;4.05;0.80;;;;;;;;;;5049239;28;20220;-60
2022/09/06 13:13:25;;;;;;;2.67;0.77;;;;;;;;;;5035102;28;20224;-59
2022/09/06 13:15:53;;;;;;;1.83;0.95;;;;;;;;;;5050407;28;20239;-60
2022/09/06 13:18:36;;;;;;;2.33;1.00;;;;;;;;;;5033646;28;20227;-59
2022/09/06 13:21:06;;;;;;;16.58;1.25;;;;;;;;;;5046415;28;20549;-59
2022/09/06 13:23:44;;;;;;;1.95;0.80;;;;;;;;;;5051637;28;20383;-59
2022/09/06 13:26:10;;;;;;;2.80;0.93;;;;;;;;;;5051362;28;20220;-57
2022/09/06 13:28:38;;;;;;;4.35;1.13;;;;;;;;;;5063694;28;20221;-59
2022/09/06 13:31:14;;;;;;;5.45;0.85;;;;;;;;;;5114834;27;20286;-59
2022/09/06 13:33:41;;;;;;;1.95;0.90;;;;;;;;;;5112497;28;20232;-58
2022/09/06 13:36:22;;;;;;;2.53;1.00;;;;;;;;;;5113599;28;20229;-59
2022/09/06 13:38:49;;;;;;;3.47;0.95;;;;;;;;;;5115858;28;20298;-59
2022/09/06 13:41:25;;;;;;;2.72;0.85;;;;;;;;;;5115202;28;20222;-60
2022/09/06 13:44:02;;;;;;;4.25;1.10;;;;;;;;;;5113331;28;20271;-59
2022/09/06 13:46:30;;;;;;;3.72;1.20;;;;;;;;;;5113425;28;20225;-58
2022/09/06 13:48:57;;;;;;;5.15;1.20;;;;;;;;;;5113875;28;20262;-60
2022/09/06 13:51:28;;;;;;;3.28;0.98;;;;;;;;;;5113462;27;20650;-59
2022/09/06 13:54:05;;;;;;;2.33;0.82;;;;;;;;;;5113940;28;20543;-60
2022/09/06 13:56:32;;;;;;;3.17;0.90;;;;;;;;;;5113624;28;20238;-59
2022/09/06 13:58:59;;;;;;;2.30;1.02;;;;;;;;;;5113892;28;20326;-60
2022/09/06 14:01:26;;;;;;;4.55;0.90;;;;;;;;;;5113784;27;20216;-59
2022/09/06 14:03:53;;;;;;;4.40;1.10;;;;;;;;;;5113259;28;20213;-60
2022/09/06 14:06:20;;;;;;;4.55;1.02;;;;;;;;;;5111049;28;20638;-59
2022/09/06 14:08:47;;;;;;;3.00;1.00;;;;;;;;;;5113264;28;20218;-60
2022/09/06 14:11:32;;;;;;;1.85;1.02;;;;;;;;;;5113219;28;20314;-59
2022/09/06 14:13:59;;;;;;;1.30;0.80;;;;;;;;;;5110713;28;20225;-59
2022/09/06 14:16:26;;;;;;;2.55;0.98;;;;;;;;;;5113330;27;20213;-59
2022/09/06 14:18:53;;;;;;;2.03;1.15;;;;;;;;;;5113876;28;20270;-60
2022/09/06 14:21:20;;;;;;;1.90;1.10;;;;;;;;;;5113681;27;20230;-59
2022/09/06 14:23:51;;;;;;;7.13;1.08;;;;;;;;;;5113884;28;20253;-58
2022/09/06 14:26:20;;;;;;;5.63;1.60;;;;;;;;;;5109839;27;20218;-59
2022/09/06 14:28:48;;;;;;;4.38;1.10;;;;;;;;;;5112614;28;20222;-59
2022/09/06 14:31:20;;;;;;;2.15;1.05;;;;;;;;;;5109066;27;20229;-59
2022/09/06 14:33:48;;;;;;;3.72;0.90;;;;;;;;;;5112230;28;20214;-60
2022/09/06 14:36:17;;;;;;;2.22;1.08;;;;;;;;;;5111250;27;20225;-59
2022/09/06 14:38:45;;;;;;;8.98;1.30;;;;;;;;;;5113161;28;20225;-59
2022/09/06 14:41:13;;;;;;;3.90;1.08;;;;;;;;;;5112892;28;20218;-57
2022/09/06 14:43:41;;;;;;;3.20;1.20;;;;;;;;;;5111161;28;20225;-58
2022/09/06 14:46:12;;;;;;;52.42;20.52;;;;;;;;;;5111605;28;20222;-59
2022/09/06 14:48:41;;;;;;;45.92;19.13;;;;;;;;;;5112233;28;20241;-59
2022/09/06 14:51:22;;;;;;;4.60;1.73;;;;;;;;;;5110093;28;20244;-59
2022/09/06 14:53:52;;;;;;;8.45;1.33;;;;;;;;;;5112224;28;20217;-60
2022/09/06 14:56:21;;;;;;;2.20;0.93;;;;;;;;;;5111932;28;20610;-59
2022/09/06 14:58:48;;;;;;;4.85;1.02;;;;;;;;;;5109282;28;20218;-58
2022/09/06 15:01:18;;;;;;;6.00;1.00;;;;;;;;;;5111166;27;20262;-58
2022/09/06 15:03:50;;;;;;;13.18;2.20;;;;;;;;;;5111822;28;20248;-57
2022/09/06 15:06:21;;;;;;;10.38;1.48;;;;;;;;;;5110334;27;20221;-57
2022/09/06 15:08:49;;;;;;;3.13;1.33;;;;;;;;;;5113553;28;20213;-57
2022/09/06 15:11:33;;;;;;;5.70;0.90;;;;;;;;;;5112482;28;20236;-57
2022/09/06 15:14:02;;;;;;;4.85;1.00;;;;;;;;;;5110730;28;20225;-59